Mustafa Sofuoglu — TCOJ7 — position and weather

sailwx.info

Track history (hours):
 
Tides and Currents Weather Stations Pressure Air Temp Water Temp Dewpoint Dewpoint Depression Visibility Wind Speed Wind Dir Waves Ship Positions

Mustafa Sofuoglu

Last reported at 2016-Jul-24 09:33 UTC. Time now 2016-Jul-29 02:06 UTC.
Position N 39°13' E 024°12'.

Length 106 m; draft 6.8 m.

Type: Cargo ship. MMSI: 271000831.

Date/timePositionNaut miles runAvg speedWind from/ knotsBaromVisibWave heightAir tempDewpointWater temp
2016-Jul-24 09:33N 39°13' E 024°12'1212.0
2016-Jul-24 08:33N 39°16' E 024°27'1212.1
2016-Jul-24 07:33N 39°20' E 024°42'5012.4
2016-Jul-24 03:30N 39°47' E 025°37'1313.3
2016-Jul-24 02:33N 39°55' E 025°50'5212.6
2016-Jul-23 22:26N 40°26' E 026°44'375 7.5
2016-Jul-21 20:17N 45°56' E 030°47'811.1
2016-Jul-21 19:33N 46°04' E 030°47'1111.3
2016-Jul-21 18:34N 46°15' E 030°45'6 0.3
2016-Jul-20 23:15N 46°20' E 030°39'0 0.0
2016-Jul-20 22:34N 46°20' E 030°39'0 0.0
2016-Jul-20 21:33N 46°20' E 030°39'0 0.0
2016-Jul-20 20:34N 46°20' E 030°39'0 0.0
2016-Jul-20 19:34N 46°20' E 030°39'0 0.0
2016-Jul-20 18:33N 46°20' E 030°39'0 0.0
2016-Jul-20 17:34N 46°20' E 030°39'0 0.0
2016-Jul-20 16:34N 46°20' E 030°39'0 0.0
2016-Jul-20 15:33N 46°20' E 030°39'0 0.0
2016-Jul-20 14:34N 46°20' E 030°39'0 0.0
2016-Jul-20 13:33N 46°20' E 030°39'0 0.0
2016-Jul-20 12:34N 46°20' E 030°39'0 0.0
2016-Jul-20 11:34N 46°20' E 030°39'0 0.0
2016-Jul-20 10:34N 46°20' E 030°39'0 0.0
2016-Jul-20 09:34N 46°20' E 030°39'0 0.0
2016-Jul-20 08:34N 46°20' E 030°39'0 0.0
2016-Jul-20 07:34N 46°20' E 030°39'0 0.0
2016-Jul-20 06:34N 46°20' E 030°39'0 0.0
2016-Jul-20 05:34N 46°20' E 030°39'0 0.0
2016-Jul-20 04:34N 46°20' E 030°39'0 0.0
2016-Jul-20 03:34N 46°20' E 030°39'0 0.0
2016-Jul-20 02:34N 46°20' E 030°39'0 0.0
2016-Jul-20 01:34N 46°20' E 030°39'0 0.0
2016-Jul-20 00:34N 46°20' E 030°39'0 0.0
2016-Jul-19 23:34N 46°20' E 030°39'3 2.6
2016-Jul-19 22:34N 46°18' E 030°43'4 3.6
2016-Jul-19 21:34N 46°15' E 030°44'0 0.1
2016-Jul-19 20:34N 46°15' E 030°44'0 0.0
2016-Jul-19 15:32N 46°15' E 030°44'0 0.0
2016-Jul-19 14:34N 46°15' E 030°44'0 0.0
2016-Jul-19 13:34N 46°15' E 030°44'0 0.0
2016-Jul-19 12:33N 46°15' E 030°44'0 0.0
2016-Jul-19 11:34N 46°15' E 030°44'0 0.0
2016-Jul-19 10:34N 46°15' E 030°44'0 0.0
2016-Jul-19 09:34N 46°15' E 030°44'0 0.0
2016-Jul-19 08:34N 46°15' E 030°44'0 0.0
2016-Jul-19 07:34N 46°15' E 030°44'0 0.0
2016-Jul-19 04:34N 46°15' E 030°44'0 0.0
2016-Jul-19 03:34N 46°15' E 030°44'0 0.0
2016-Jul-19 02:34N 46°15' E 030°44'0 0.0
2016-Jul-19 01:34N 46°15' E 030°44'0 0.0
2016-Jul-19 00:34N 46°15' E 030°44'0 0.0
2016-Jul-18 23:34N 46°15' E 030°44'0 0.0
2016-Jul-18 22:34N 46°15' E 030°44'0 0.0
2016-Jul-18 21:34N 46°15' E 030°44'0 0.0
2016-Jul-18 20:33N 46°15' E 030°44'0 0.0
2016-Jul-18 19:33N 46°15' E 030°44'0 0.0
2016-Jul-18 18:33N 46°15' E 030°44'0 0.0
2016-Jul-18 03:06N 46°15' E 030°44'0 0.0
2016-Jul-18 00:24N 46°15' E 030°44'1 0.2
2016-Jul-17 18:33N 46°14' E 030°45'1212.1
2016-Jul-17 17:33N 46°02' E 030°48'3012.2
2016-Jul-17 15:07N 45°33' E 030°36'1312.5
2016-Jul-17 14:07N 45°21' E 030°29'712.8
2016-Jul-17 13:33N 45°15' E 030°26'1212.0
2016-Jul-17 12:32N 45°05' E 030°16'1311.7
2016-Jul-17 11:26N 44°55' E 030°03'  
Track history (hours):
 
Tides and Currents Weather Stations Pressure Air Temp Water Temp Dewpoint Dewpoint Depression Visibility Wind Speed Wind Dir Waves Ship Positions

Mustafa Sofuoglu

Last reported at 2016-Jul-24 09:33 UTC. Time now 2016-Jul-29 02:06 UTC.
Position N 39°13' E 024°12'.

Length 106 m; draft 6.8 m.

Type: Cargo ship. MMSI: 271000831.

Date/timePositionNaut miles runAvg speedWind from/ knotsBaromVisibWave heightAir tempDewpointWater temp
2016-Jul-24 09:33N 39°13' E 024°12'1212.0
2016-Jul-24 08:33N 39°16' E 024°27'1212.1
2016-Jul-24 07:33N 39°20' E 024°42'5012.4
2016-Jul-24 03:30N 39°47' E 025°37'1313.3
2016-Jul-24 02:33N 39°55' E 025°50'5212.6
2016-Jul-23 22:26N 40°26' E 026°44'375 7.5
2016-Jul-21 20:17N 45°56' E 030°47'811.1
2016-Jul-21 19:33N 46°04' E 030°47'1111.3
2016-Jul-21 18:34N 46°15' E 030°45'6 0.3
2016-Jul-20 23:15N 46°20' E 030°39'0 0.0
2016-Jul-20 22:34N 46°20' E 030°39'0 0.0
2016-Jul-20 21:33N 46°20' E 030°39'0 0.0
2016-Jul-20 20:34N 46°20' E 030°39'0 0.0
2016-Jul-20 19:34N 46°20' E 030°39'0 0.0
2016-Jul-20 18:33N 46°20' E 030°39'0 0.0
2016-Jul-20 17:34N 46°20' E 030°39'0 0.0
2016-Jul-20 16:34N 46°20' E 030°39'0 0.0
2016-Jul-20 15:33N 46°20' E 030°39'0 0.0
2016-Jul-20 14:34N 46°20' E 030°39'0 0.0
2016-Jul-20 13:33N 46°20' E 030°39'0 0.0
2016-Jul-20 12:34N 46°20' E 030°39'0 0.0
2016-Jul-20 11:34N 46°20' E 030°39'0 0.0
2016-Jul-20 10:34N 46°20' E 030°39'0 0.0
2016-Jul-20 09:34N 46°20' E 030°39'0 0.0
2016-Jul-20 08:34N 46°20' E 030°39'0 0.0
2016-Jul-20 07:34N 46°20' E 030°39'0 0.0
2016-Jul-20 06:34N 46°20' E 030°39'0 0.0
2016-Jul-20 05:34N 46°20' E 030°39'0 0.0
2016-Jul-20 04:34N 46°20' E 030°39'0 0.0
2016-Jul-20 03:34N 46°20' E 030°39'0 0.0
2016-Jul-20 02:34N 46°20' E 030°39'0 0.0
2016-Jul-20 01:34N 46°20' E 030°39'0 0.0
2016-Jul-20 00:34N 46°20' E 030°39'0 0.0
2016-Jul-19 23:34N 46°20' E 030°39'3 2.6
2016-Jul-19 22:34N 46°18' E 030°43'4 3.6
2016-Jul-19 21:34N 46°15' E 030°44'0 0.1
2016-Jul-19 20:34N 46°15' E 030°44'0 0.0
2016-Jul-19 15:32N 46°15' E 030°44'0 0.0
2016-Jul-19 14:34N 46°15' E 030°44'0 0.0
2016-Jul-19 13:34N 46°15' E 030°44'0 0.0
2016-Jul-19 12:33N 46°15' E 030°44'0 0.0
2016-Jul-19 11:34N 46°15' E 030°44'0 0.0
2016-Jul-19 10:34N 46°15' E 030°44'0 0.0
2016-Jul-19 09:34N 46°15' E 030°44'0 0.0
2016-Jul-19 08:34N 46°15' E 030°44'0 0.0
2016-Jul-19 07:34N 46°15' E 030°44'0 0.0
2016-Jul-19 04:34N 46°15' E 030°44'0 0.0
2016-Jul-19 03:34N 46°15' E 030°44'0 0.0
2016-Jul-19 02:34N 46°15' E 030°44'0 0.0
2016-Jul-19 01:34N 46°15' E 030°44'0 0.0
2016-Jul-19 00:34N 46°15' E 030°44'0 0.0
2016-Jul-18 23:34N 46°15' E 030°44'0 0.0
2016-Jul-18 22:34N 46°15' E 030°44'0 0.0
2016-Jul-18 21:34N 46°15' E 030°44'0 0.0
2016-Jul-18 20:33N 46°15' E 030°44'0 0.0
2016-Jul-18 19:33N 46°15' E 030°44'0 0.0
2016-Jul-18 18:33N 46°15' E 030°44'0 0.0
2016-Jul-18 03:06N 46°15' E 030°44'0 0.0
2016-Jul-18 00:24N 46°15' E 030°44'1 0.2
2016-Jul-17 18:33N 46°14' E 030°45'1212.1
2016-Jul-17 17:33N 46°02' E 030°48'3012.2
2016-Jul-17 15:07N 45°33' E 030°36'1312.5
2016-Jul-17 14:07N 45°21' E 030°29'712.8
2016-Jul-17 13:33N 45°15' E 030°26'1212.0
2016-Jul-17 12:32N 45°05' E 030°16'1311.7
2016-Jul-17 11:26N 44°55' E 030°03'  

Dump ship's entire track history